This is the latest recevied weather packets stored in our database for station/object KO4APQ. If no packets are shown the sender has not sent any weather packets the latest 10 day(s).
| Time | Temp. | Humidity | Pressure | Rain* | Wind** | Luminosity | Snow |
|---|---|---|---|---|---|---|---|
| 1777871067 | 9.44° C | 68% | 1018.4 hPa | 0 mm | - | 0 W/m² | - |
| 1777870764 | 9.44° C | 70% | 1018.2 hPa | 0 mm | - | 0 W/m² | - |
| 1777870460 | 10° C | 70% | 1018.2 hPa | 0 mm | - | 0 W/m² | - |
| 1777870156 | 10° C | 66% | 1018.1 hPa | 0 mm | - | 0 W/m² | - |
| 1777869854 | 9.44° C | 66% | 1017.9 hPa | 0 mm | - | 0 W/m² | - |
| 1777869551 | 9.44° C | 67% | 1017.9 hPa | 0 mm | - | 0 W/m² | - |
| 1777869248 | 10° C | 69% | 1018 hPa | 0 mm | - | 0 W/m² | - |
| 1777868945 | 10° C | 66% | 1018 hPa | 0 mm | - | 0 W/m² | - |
| 1777868641 | 10.56° C | 65% | 1018.1 hPa | 0 mm | - | 0 W/m² | - |
| 1777868338 | 11.11° C | 62% | 1018.2 hPa | 0 mm | - | 0 W/m² | - |
| 1777868034 | 11.11° C | 58% | 1018.2 hPa | 0 mm | - | 0 W/m² | - |
| 1777867730 | 11.67° C | 57% | 1018.2 hPa | 0 mm | - | 0 W/m² | - |
| 1777867428 | 12.22° C | 55% | 1018.2 hPa | 0 mm | - | 0 W/m² | - |
| 1777867123 | 12.22° C | 54% | 1018.3 hPa | 0 mm | - | 0 W/m² | - |
| 1777866822 | 12.78° C | 54% | 1018.3 hPa | 0 mm | - | 0 W/m² | - |
| 1777866216 | 12.78° C | 54% | 1018.2 hPa | 0 mm | - | 0 W/m² | - |
| 1777865611 | 12.78° C | 53% | 1018.2 hPa | 0 mm | - | 0 W/m² | - |
| 1777863792 | 13.33° C | 50% | 1018.2 hPa | 0 mm | - | 0 W/m² | - |
| 1777863488 | 13.89° C | 50% | 1018.2 hPa | 0 mm | - | 0 W/m² | - |
| 1777847421 | 21.11° C | 33% | 1016.2 hPa | 0 mm | - | 226 W/m² | - |
| 1777846818 | 21.11° C | 33% | 1016.3 hPa | 0 mm | - | 264 W/m² | - |
| 1777845303 | 21.67° C | 28% | 1016.7 hPa | 0 mm | - | 364 W/m² | - |
| 1777845000 | 21.67° C | 30% | 1016.6 hPa | 0 mm | - | 384 W/m² | - |
| 1777844698 | 21.67° C | 30% | 1016.6 hPa | 0 mm | - | 401 W/m² | - |
| 1777844093 | 21.67° C | 28% | 1016.6 hPa | 0 mm | - | 444 W/m² | - |
* Rain latest hour (hover to see other rain measurements)
** Current wind speed in m/s (hover to see current wind gust speed)